Okara Weather



Okara's Current Weather

Temprature 36.66o broken clouds

broken clouds

Rain: 0 %

Min Temprature36.66o
Max Temprature36.66o
Humidity47
Wind Speed8.38 m/h
Sun Rise05:31:22
Sun Set18:50:54
Current Time: 13-Aug-2020 18:30:00
Lat/Lon: 30.81, 73.45




Okara's Geo Location



Okara's Weather Forecast

Time Overall Temp Min Temp Max Temp Humidity Wind Speed Rain
13-Aug-2020 (Thu)
20:00:00 light rain 36.710 32.060 36.710 47 5.48 m/h 202 %
23:00:00 moderate rain 32.510 30.130 32.510 64 5.57 m/h 349 %
14-Aug-2020 (Fri)
02:00:00 light rain 30.360 29.620 30.360 75 3.87 m/h 90 %
05:00:00 heavy intensity rain 28.320 28.220 28.320 84 6.49 m/h 1,204 %
08:00:00 scattered clouds 31.090 31.090 31.090 73 4.15 m/h 0 %
11:00:00 few clouds 35.990 35.990 35.990 52 3.07 m/h 0 %
14:00:00 clear sky 39.250 39.250 39.250 40 2.17 m/h 0 %
17:00:00 few clouds 38.410 38.410 38.410 42 1.84 m/h 0 %
20:00:00 light rain 34.040 34.040 34.040 56 3.67 m/h 34 %
23:00:00 clear sky 32.560 32.560 32.560 61 3.68 m/h 0 %
15-Aug-2020 (Sat)
02:00:00 light rain 30.550 30.550 30.550 73 2.86 m/h 158 %
05:00:00 light rain 29.870 29.870 29.870 74 3.79 m/h 33 %
08:00:00 light rain 32.790 32.790 32.790 62 3.5 m/h 31 %
11:00:00 scattered clouds 37.860 37.860 37.860 44 2.99 m/h 0 %
14:00:00 few clouds 40.390 40.390 40.390 36 2.5 m/h 0 %
17:00:00 scattered clouds 37.830 37.830 37.830 43 2.76 m/h 0 %
20:00:00 few clouds 35.750 35.750 35.750 47 3.12 m/h 0 %
23:00:00 clear sky 33.740 33.740 33.740 54 4.57 m/h 0 %
16-Aug-2020 (Sun)
02:00:00 light rain 32.060 32.060 32.060 62 3.86 m/h 19 %
05:00:00 scattered clouds 31.840 31.840 31.840 63 2.46 m/h 0 %
08:00:00 light rain 31.080 31.080 31.080 70 5.31 m/h 82 %
11:00:00 overcast clouds 32.820 32.820 32.820 64 2.43 m/h 0 %
14:00:00 few clouds 39.610 39.610 39.610 39 2.49 m/h 0 %
17:00:00 clear sky 40.130 40.130 40.130 35 1.78 m/h 0 %
20:00:00 clear sky 35.880 35.880 35.880 47 3.08 m/h 0 %
23:00:00 clear sky 33.770 33.770 33.770 55 4.9 m/h 0 %
17-Aug-2020 (Mon)
02:00:00 light rain 30.720 30.720 30.720 70 3.41 m/h 166 %
05:00:00 scattered clouds 30.830 30.830 30.830 72 2.94 m/h 0 %
08:00:00 overcast clouds 32.580 32.580 32.580 62 4.65 m/h 0 %
11:00:00 broken clouds 38.460 38.460 38.460 42 4.41 m/h 0 %
14:00:00 scattered clouds 39.870 39.870 39.870 38 2.82 m/h 0 %
17:00:00 light rain 38.830 38.830 38.830 40 1.6 m/h 10 %
20:00:00 scattered clouds 35.070 35.070 35.070 52 5.58 m/h 0 %
23:00:00 light rain 33.220 33.220 33.220 57 3.58 m/h 13 %
18-Aug-2020 (Tue)
02:00:00 overcast clouds 32.320 32.320 32.320 58 2.62 m/h 0 %
05:00:00 overcast clouds 31.320 31.320 31.320 62 2.64 m/h 0 %
08:00:00 few clouds 33.770 33.770 33.770 55 3.08 m/h 0 %
11:00:00 broken clouds 38.560 38.560 38.560 40 2.77 m/h 0 %
14:00:00 broken clouds 39.870 39.870 39.870 37 3.63 m/h 0 %
17:00:00 broken clouds 39.570 39.570 39.570 39 2.85 m/h 0 %

Famous Cities (60)